AirNav   Everest Fuels
 
 454 users online  

MI20 White O'Morn Heliport
Chelsea, Michigan, USA

GOING TO CHELSEA?


FAA INFORMATION EFFECTIVE 07 NOVEMBER 2019

Location

FAA Identifier: MI20
Lat/Long: 42-15-09.5000N 084-00-26.8000W
42-15.158333N 084-00.446667W
42.2526389,-84.0074444
(estimated)
Elevation: 960 ft. / 293 m (estimated)
From city: 4 miles SE of CHELSEA, MI
Time zone: UTC -5 (UTC -4 during Daylight Saving Time)
Zip code: 48118

Heliport Operations

Heliport use: Private use. Permission required prior to landing
Activation date: 05/2006
Control tower: no
ARTCC: CLEVELAND CENTER
FSS: LANSING FLIGHT SERVICE STATION
Attendance: UNATNDD
Wind indicator: lighted
Segmented circle: no
Lights: DUSK-1715

Heliport Communications

WX ASOS at ARB (12 nm E): PHONE 734-668-7173

Nearby radio navigation aids

VOR radial/distance  VOR name  Freq  Var
JXNr096/20.0JACKSON VOR/DME109.6005W
SVMr246/20.6SALEM VORTAC114.3003W
CRLr300/27.4CARLETON VOR/DME115.7003W
DXOr281/28.6DETROIT VOR/DME113.4006W
LFDr076/35.6LITCHFIELD VOR/DME111.2005W

 
NDB name  Hdg/Dist  Freq  Var  ID
TECUMSEH344/14.223906WTCU - -.-. ..-
ADRIAN014/23.227806WADG .- -.. --.
GROSSE ILE290/39.141907WRYS .-. -.-- ...

Heliport Services

Runway Information

Helipad H1

Dimensions: 24 x 24 ft. / 7 x 7 m
Surface: asphalt
Runway edge lights: FLD
Operational restrictions: CIRCULAR HELIPAD.
Traffic pattern: leftleft

Heliport Ownership and Management from official FAA records

Ownership: Privately-owned
Owner: ROBERT C. JACKSON
14091 SCIO CHURCH RD
CHELSEA, MI 48118
Phone 734-475-2027
Manager: ROBERT C. JACKSON
14091 SCIO CHURCH RD
CHELSEA, MI 48118
Phone 734-475-2027

Heliport Operational Statistics

Aircraft based on the field: 1
Helicopters: 1
    

Additional Remarks

FOR CD CTC DETROIT APCH AT 800-499-8181.

Instrument Procedures

There are no published instrument procedures at MI20.

Some nearby airports with instrument procedures:

KARB - Ann Arbor Municipal Airport (12 nm E)
KJXN - Jackson County Airport-Reynolds Field (20 nm W)
KYIP - Willow Run Airport (21 nm E)
KOZW - Livingston County Spencer J Hardy Airport (23 nm N)
Y47 - Oakland Southwest Airport (23 nm NE)
 
Loc | Ops | Rwys | IFR | FBO | Links
Com | Nav | Svcs | Stats | Notes
Area around MI20 (White O'Morn Heliport)
 
Road maps at: MapQuest Bing Google
 
Aerial photo
No photo
 
Sectional chart

 
Airport distance calculator
Flying to White O'Morn Heliport? Find the distance to fly.

From to MI20

Sunrise and sunset
Times for 12-Nov-2019
 Local
(UTC-5)
 Zulu
(UTC)
Morning civil twilight06:5411:54
Sunrise07:2412:24
Sunset17:1722:17
Evening civil twilight17:4622:46

Current date and time
Zulu (UTC)  12-Nov-2019 06:15:12
Local (UTC-5)  12-Nov-2019 01:15:12
 
METAR
KARB 
12nm E 
734-668-7173
120553Z AUTO 33012G18KT 3SM -SN OVC026 M07/M09 A3014 RMK AO2 SLP219 P0000 60000 T10671094 11039 21067 51010
KJXN 
20nm W 
120556Z AUTO 30005KT 10SM BKN055 OVC070 M07/M10 A3018 RMK AO2 SNE39 SLP234 P0000 60000 T10721100 11044 21072 51008
KYIP 
21nm E 
120601Z 32013KT 3SM -SN OVC031 M05/M08 A3014 RMK AO2 P0000 T10501083 $
KOZW 
22nm N 
120555Z AUTO 30006KT 2SM -SN OVC032 M07/M09 A3016 RMK AO2 T10721090 11053 21072 410051072
KADG 
23nm S 
120553Z AUTO 34010KT 10SM SCT043 M07/M09 A3017 RMK AO2 SLP229 T10671094 11039 21067 51011 PWINO FZRANO $
TAF
KJXN 
20nm W 
120540Z 1206/1306 32006KT P6SM -SHSN SCT035 BKN050 FM121000 32006KT P6SM -SHSN BKN035 TEMPO 1210/1214 3SM -SHSN OVC025 FM121500 31010G18KT P6SM VCSH BKN035 FM122200 29006KT P6SM SKC
KYIP 
21nm E 
120521Z 1206/1306 33013KT 6SM -SN OVC015 TEMPO 1206/1209 2SM -SN OVC010 FM121000 30010KT P6SM BKN025 OVC040 FM121300 31013KT P6SM SCT025 BKN040 FM130000 26008KT P6SM SCT045
NOTAMs
Click for the latest NOTAMs
NOTAMs are issued by the DoD/FAA and will open in a separate window not controlled by AirNav.

 

 
 

Would you like to see your business listed on this page?

 If your business provides an interesting product or service to pilots, flight crews, aircraft, or users of the White O'Morn Heliport, you should consider listing it here.  To start the listing process, click on the button below
 
Add a business
 

Other Pages about White O'Morn Heliport

Update a link
 
Copyright © AirNav, LLC. All rights reserved. Privacy Policy  Contact